sensor_id;sensor_type;location;lat;lon;timestamp;pressure;altitude;pressure_sealevel;temperature;humidity
32243;BME280;18731;42.830;24.390;2023-01-27T04:01:46;93645.75;;;-0.11;78.37
32243;BME280;18731;42.830;24.390;2023-01-27T04:04:11;93635.81;;;-0.14;78.01
32243;BME280;18731;42.830;24.390;2023-01-27T04:06:55;93643.84;;;-0.05;78.02
32243;BME280;18731;42.830;24.390;2023-01-27T04:11:55;93646.53;;;-0.10;77.32
32243;BME280;18731;42.830;24.390;2023-01-27T04:14:37;93670.53;;;-0.22;78.05
32243;BME280;18731;42.830;24.390;2023-01-27T04:17:11;93668.13;;;-0.42;78.72
32243;BME280;18731;42.830;24.390;2023-01-27T04:19:37;93673.09;;;-0.41;79.27
32243;BME280;18731;42.830;24.390;2023-01-27T04:22:04;93679.47;;;-0.47;79.10
32243;BME280;18731;42.830;24.390;2023-01-27T04:24:30;93676.09;;;-0.52;79.67
32243;BME280;18731;42.830;24.390;2023-01-27T04:27:00;93677.50;;;-0.36;79.69
32243;BME280;18731;42.830;24.390;2023-01-27T04:29:29;93664.97;;;-0.39;79.60
32243;BME280;18731;42.830;24.390;2023-01-27T04:31:56;93674.31;;;-0.33;78.97
32243;BME280;18731;42.830;24.390;2023-01-27T04:34:23;93664.91;;;-0.34;79.21
32243;BME280;18731;42.830;24.390;2023-01-27T04:36:48;93664.06;;;-0.29;79.09
32243;BME280;18731;42.830;24.390;2023-01-27T04:39:16;93644.09;;;-0.25;79.21
32243;BME280;18731;42.830;24.390;2023-01-27T04:41:43;93644.81;;;-0.20;78.90
32243;BME280;18731;42.830;24.390;2023-01-27T04:44:09;93644.25;;;-0.17;79.19
32243;BME280;18731;42.830;24.390;2023-01-27T04:46:35;93644.19;;;-0.12;79.11
32243;BME280;18731;42.830;24.390;2023-01-27T04:49:01;93640.72;;;-0.07;78.14
32243;BME280;18731;42.830;24.390;2023-01-27T04:51:27;93627.66;;;-0.12;77.53
32243;BME280;18731;42.830;24.390;2023-01-27T04:53:53;93628.44;;;-0.12;78.09
32243;BME280;18731;42.830;24.390;2023-01-27T04:56:30;93642.81;;;-0.28;78.62
32243;BME280;18731;42.830;24.390;2023-01-27T04:58:58;93624.91;;;-0.45;79.51
32243;BME280;18731;42.830;24.390;2023-01-27T05:01:24;93642.63;;;-0.37;79.50
32243;BME280;18731;42.830;24.390;2023-01-27T05:03:50;93633.50;;;-0.39;79.42
32243;BME280;18731;42.830;24.390;2023-01-27T05:06:16;93634.06;;;-0.42;79.59
32243;BME280;18731;42.830;24.390;2023-01-27T05:08:42;93627.25;;;-0.43;80.14
32243;BME280;18731;42.830;24.390;2023-01-27T05:11:07;93630.72;;;-0.48;80.30
32243;BME280;18731;42.830;24.390;2023-01-27T05:13:34;93619.50;;;-0.53;80.14
32243;BME280;18731;42.830;24.390;2023-01-27T05:16:19;93634.06;;;-0.42;79.90
32243;BME280;18731;42.830;24.390;2023-01-27T05:18:47;93637.91;;;-0.58;80.14
32243;BME280;18731;42.830;24.390;2023-01-27T05:21:16;93635.63;;;-0.65;80.50
32243;BME280;18731;42.830;24.390;2023-01-27T05:23:42;93655.06;;;-0.71;80.83
32243;BME280;18731;42.830;24.390;2023-01-27T05:26:16;93660.03;;;-0.70;81.35
32243;BME280;18731;42.830;24.390;2023-01-27T05:28:44;93673.41;;;-0.71;81.32
32243;BME280;18731;42.830;24.390;2023-01-27T05:31:11;93668.50;;;-0.78;81.51
32243;BME280;18731;42.830;24.390;2023-01-27T05:33:38;93667.03;;;-0.89;82.39
32243;BME280;18731;42.830;24.390;2023-01-27T05:36:06;93667.25;;;-0.85;82.23
32243;BME280;18731;42.830;24.390;2023-01-27T05:38:33;93657.56;;;-0.85;82.36
32243;BME280;18731;42.830;24.390;2023-01-27T05:41:00;93646.25;;;-0.80;82.17
32243;BME280;18731;42.830;24.390;2023-01-27T05:43:32;93644.75;;;-0.62;81.38
32243;BME280;18731;42.830;24.390;2023-01-27T05:46:09;93645.22;;;-0.55;80.75
32243;BME280;18731;42.830;24.390;2023-01-27T05:48:37;93646.72;;;-0.49;80.69
32243;BME280;18731;42.830;24.390;2023-01-27T05:51:04;93649.56;;;-0.46;80.10
32243;BME280;18731;42.830;24.390;2023-01-27T05:53:30;93658.72;;;-0.43;79.66
32243;BME280;18731;42.830;24.390;2023-01-27T05:55:56;93648.66;;;-0.36;79.73
32243;BME280;18731;42.830;24.390;2023-01-27T05:58:22;93626.91;;;-0.37;79.16
32243;BME280;18731;42.830;24.390;2023-01-27T06:00:48;93647.38;;;-0.15;78.60
32243;BME280;18731;42.830;24.390;2023-01-27T06:03:14;93652.81;;;-0.11;78.50
32243;BME280;18731;42.830;24.390;2023-01-27T06:05:50;93650.06;;;-0.01;78.55
32243;BME280;18731;42.830;24.390;2023-01-27T06:08:17;93636.63;;;0.06;78.12
32243;BME280;18731;42.830;24.390;2023-01-27T06:10:42;93659.56;;;0.19;77.66
32243;BME280;18731;42.830;24.390;2023-01-27T06:13:08;93653.16;;;0.25;77.10
32243;BME280;18731;42.830;24.390;2023-01-27T06:15:34;93623.47;;;0.11;77.21
32243;BME280;18731;42.830;24.390;2023-01-27T06:17:59;93663.75;;;0.39;76.78
32243;BME280;18731;42.830;24.390;2023-01-27T06:20:25;93651.91;;;0.41;76.59
32243;BME280;18731;42.830;24.390;2023-01-27T06:22:51;93662.81;;;0.48;75.93
32243;BME280;18731;42.830;24.390;2023-01-27T06:25:16;93653.88;;;0.49;75.64
32243;BME280;18731;42.830;24.390;2023-01-27T06:27:42;93654.28;;;0.56;75.26
32243;BME280;18731;42.830;24.390;2023-01-27T06:30:09;93661.03;;;0.62;75.14
32243;BME280;18731;42.830;24.390;2023-01-27T06:32:35;93652.16;;;0.58;74.95
32243;BME280;18731;42.830;24.390;2023-01-27T06:35:01;93672.72;;;0.70;75.02
32243;BME280;18731;42.830;24.390;2023-01-27T06:37:30;93671.88;;;0.75;74.90
32243;BME280;18731;42.830;24.390;2023-01-27T06:39:55;93663.16;;;0.60;74.30
32243;BME280;18731;42.830;24.390;2023-01-27T06:42:21;93672.44;;;0.72;74.08
32243;BME280;18731;42.830;24.390;2023-01-27T06:44:47;93677.91;;;0.75;74.52
32243;BME280;18731;42.830;24.390;2023-01-27T06:47:12;93674.22;;;0.76;74.25
32243;BME280;18731;42.830;24.390;2023-01-27T06:49:38;93659.69;;;0.65;73.82
32243;BME280;18731;42.830;24.390;2023-01-27T06:52:03;93676.97;;;0.85;74.49
32243;BME280;18731;42.830;24.390;2023-01-27T06:54:29;93690.03;;;0.90;74.50
32243;BME280;18731;42.830;24.390;2023-01-27T06:56:54;93686.13;;;0.87;74.11
32243;BME280;18731;42.830;24.390;2023-01-27T06:59:20;93682.03;;;0.81;74.35
32243;BME280;18731;42.830;24.390;2023-01-27T07:01:45;93680.13;;;0.68;74.93
32243;BME280;18731;42.830;24.390;2023-01-27T07:04:11;93667.22;;;0.53;75.37
32243;BME280;18731;42.830;24.390;2023-01-27T07:06:36;93686.50;;;0.62;75.33
32243;BME280;18731;42.830;24.390;2023-01-27T07:09:02;93693.19;;;0.54;75.36
32243;BME280;18731;42.830;24.390;2023-01-27T07:11:28;93697.50;;;0.45;74.95
32243;BME280;18731;42.830;24.390;2023-01-27T07:13:53;93693.25;;;0.49;74.87
32243;BME280;18731;42.830;24.390;2023-01-27T07:16:19;93694.69;;;0.42;75.29
32243;BME280;18731;42.830;24.390;2023-01-27T07:18:45;93698.16;;;0.37;75.42
32243;BME280;18731;42.830;24.390;2023-01-27T07:21:11;93694.03;;;0.31;75.14
32243;BME280;18731;42.830;24.390;2023-01-27T07:23:37;93694.03;;;0.31;75.98
32243;BME280;18731;42.830;24.390;2023-01-27T07:26:02;93702.25;;;0.24;76.38
32243;BME280;18731;42.830;24.390;2023-01-27T07:28:28;93702.97;;;0.30;76.23
32243;BME280;18731;42.830;24.390;2023-01-27T07:30:54;93691.63;;;0.35;76.36
32243;BME280;18731;42.830;24.390;2023-01-27T07:33:19;93698.16;;;0.37;76.19
32243;BME280;18731;42.830;24.390;2023-01-27T07:35:47;93704.59;;;0.45;76.29
32243;BME280;18731;42.830;24.390;2023-01-27T07:38:14;93692.97;;;0.51;75.89
32243;BME280;18731;42.830;24.390;2023-01-27T07:40:40;93691.97;;;0.66;75.25
32243;BME280;18731;42.830;24.390;2023-01-27T07:43:05;93697.44;;;0.69;74.64
32243;BME280;18731;42.830;24.390;2023-01-27T07:45:31;93693.38;;;0.77;74.47
32243;BME280;18731;42.830;24.390;2023-01-27T07:48:07;93703.66;;;0.92;74.17
32243;BME280;18731;42.830;24.390;2023-01-27T07:50:34;93709.91;;;0.96;73.35
32243;BME280;18731;42.830;24.390;2023-01-27T07:53:01;93697.66;;;1.05;72.61
32243;BME280;18731;42.830;24.390;2023-01-27T07:55:28;93698.97;;;1.21;72.23
32243;BME280;18731;42.830;24.390;2023-01-27T07:57:55;93693.47;;;1.37;72.12
32243;BME280;18731;42.830;24.390;2023-01-27T08:00:21;93696.41;;;1.49;71.72
32243;BME280;18731;42.830;24.390;2023-01-27T08:02:51;93684.53;;;1.65;70.82
32243;BME280;18731;42.830;24.390;2023-01-27T08:05:17;93693.81;;;1.76;70.49
32243;BME280;18731;42.830;24.390;2023-01-27T08:07:43;93686.69;;;1.90;70.09
32243;BME280;18731;42.830;24.390;2023-01-27T08:10:10;93688.75;;;2.07;69.67
32243;BME280;18731;42.830;24.390;2023-01-27T08:12:36;93682.38;;;2.22;69.59
32243;BME280;18731;42.830;24.390;2023-01-27T08:15:01;93694.44;;;2.37;68.78
32243;BME280;18731;42.830;24.390;2023-01-27T08:17:27;93687.78;;;2.53;68.58
32243;BME280;18731;42.830;24.390;2023-01-27T08:19:53;93687.47;;;2.68;68.49
32243;BME280;18731;42.830;24.390;2023-01-27T08:22:18;93697.72;;;2.70;68.69
32243;BME280;18731;42.830;24.390;2023-01-27T08:24:48;93691.81;;;2.86;67.70
32243;BME280;18731;42.830;24.390;2023-01-27T08:27:14;93687.19;;;2.92;66.39
32243;BME280;18731;42.830;24.390;2023-01-27T08:29:40;93682.88;;;2.96;65.31
32243;BME280;18731;42.830;24.390;2023-01-27T08:32:06;93671.50;;;2.87;64.72
32243;BME280;18731;42.830;24.390;2023-01-27T08:34:32;93686.97;;;3.02;64.41
32243;BME280;18731;42.830;24.390;2023-01-27T08:36:58;93680.78;;;3.07;64.58
32243;BME280;18731;42.830;24.390;2023-01-27T08:39:24;93682.28;;;3.21;64.88
32243;BME280;18731;42.830;24.390;2023-01-27T08:41:50;93671.06;;;3.38;65.05
32243;BME280;18731;42.830;24.390;2023-01-27T08:44:15;93676.84;;;3.49;64.31
32243;BME280;18731;42.830;24.390;2023-01-27T08:46:41;93660.16;;;3.62;64.26
32243;BME280;18731;42.830;24.390;2023-01-27T08:49:07;93666.16;;;3.94;63.55
32243;BME280;18731;42.830;24.390;2023-01-27T08:51:32;93663.72;;;4.06;62.97
32243;BME280;18731;42.830;24.390;2023-01-27T08:53:58;93666.25;;;4.28;61.46
32243;BME280;18731;42.830;24.390;2023-01-27T08:56:23;93668.47;;;4.43;60.38
32243;BME280;18731;42.830;24.390;2023-01-27T08:58:49;93663.03;;;4.74;59.50
32243;BME280;18731;42.830;24.390;2023-01-27T09:01:18;93661.16;;;5.01;59.13
32243;BME280;18731;42.830;24.390;2023-01-27T09:03:44;93658.06;;;5.07;59.05
32243;BME280;18731;42.830;24.390;2023-01-27T09:06:11;93655.41;;;5.25;58.48
32243;BME280;18731;42.830;24.390;2023-01-27T09:08:38;93663.97;;;5.13;58.12
32243;BME280;18731;42.830;24.390;2023-01-27T09:11:11;93671.28;;;4.90;58.46
32243;BME280;18731;42.830;24.390;2023-01-27T09:13:38;93668.66;;;4.90;58.97
32243;BME280;18731;42.830;24.390;2023-01-27T09:16:04;93653.56;;;4.91;57.58
32243;BME280;18731;42.830;24.390;2023-01-27T09:18:29;93662.88;;;4.88;58.00
32243;BME280;18731;42.830;24.390;2023-01-27T09:20:55;93659.94;;;4.81;58.87
32243;BME280;18731;42.830;24.390;2023-01-27T09:23:20;93657.13;;;4.69;59.09
32243;BME280;18731;42.830;24.390;2023-01-27T09:25:46;93660.56;;;4.78;59.33
32243;BME280;18731;42.830;24.390;2023-01-27T09:28:12;93652.16;;;4.76;58.73
32243;BME280;18731;42.830;24.390;2023-01-27T09:30:44;93645.78;;;4.68;59.05
32243;BME280;18731;42.830;24.390;2023-01-27T09:33:13;93641.13;;;4.74;58.89
32243;BME280;18731;42.830;24.390;2023-01-27T09:35:53;93631.94;;;4.71;58.69
32243;BME280;18731;42.830;24.390;2023-01-27T09:38:21;93629.59;;;4.87;57.88
32243;BME280;18731;42.830;24.390;2023-01-27T09:49:25;93620.53;;;5.31;57.74
32243;BME280;18731;42.830;24.390;2023-01-27T09:52:13;93623.78;;;5.37;57.21
32243;BME280;18731;42.830;24.390;2023-01-27T10:03:25;93608.53;;;5.80;55.66
32243;BME280;18731;42.830;24.390;2023-01-27T10:27:21;93597.50;;;5.70;57.43
32243;BME280;18731;42.830;24.390;2023-01-27T10:35:19;93586.31;;;5.17;58.15
32243;BME280;18731;42.830;24.390;2023-01-27T10:38:03;93589.19;;;4.78;59.96
32243;BME280;18731;42.830;24.390;2023-01-27T10:40:50;93585.63;;;4.39;59.85
32243;BME280;18731;42.830;24.390;2023-01-27T10:51:25;93583.09;;;3.91;63.10
32243;BME280;18731;42.830;24.390;2023-01-27T10:54:21;93582.31;;;3.91;62.95
32243;BME280;18731;42.830;24.390;2023-01-27T10:56:54;93583.88;;;3.92;62.57
32243;BME280;18731;42.830;24.390;2023-01-27T11:02:19;93572.69;;;4.03;62.03
32243;BME280;18731;42.830;24.390;2023-01-27T11:04:54;93561.50;;;3.98;62.50
32243;BME280;18731;42.830;24.390;2023-01-27T11:07:23;93555.63;;;4.01;62.53
32243;BME280;18731;42.830;24.390;2023-01-27T11:10:00;93558.09;;;3.97;63.26
32243;BME280;18731;42.830;24.390;2023-01-27T11:12:33;93565.97;;;3.80;63.78
32243;BME280;18731;42.830;24.390;2023-01-27T11:15:01;93559.00;;;3.75;64.73
32243;BME280;18731;42.830;24.390;2023-01-27T11:23:04;93554.00;;;3.65;65.23
32243;BME280;18731;42.830;24.390;2023-01-27T11:28:41;93548.72;;;3.65;65.45
32243;BME280;18731;42.830;24.390;2023-01-27T11:31:27;93544.66;;;3.59;65.29
32243;BME280;18731;42.830;24.390;2023-01-27T11:34:02;93550.28;;;3.66;65.73
32243;BME280;18731;42.830;24.390;2023-01-27T11:36:29;93546.25;;;3.77;65.33
32243;BME280;18731;42.830;24.390;2023-01-27T11:38:56;93542.88;;;3.85;65.62
32243;BME280;18731;42.830;24.390;2023-01-27T11:41:23;93548.75;;;3.82;65.16
32243;BME280;18731;42.830;24.390;2023-01-27T11:43:49;93537.25;;;3.78;65.00
32243;BME280;18731;42.830;24.390;2023-01-27T11:46:21;93545.19;;;3.78;65.11
32243;BME280;18731;42.830;24.390;2023-01-27T11:48:51;93545.19;;;3.78;65.28
32243;BME280;18731;42.830;24.390;2023-01-27T11:51:22;93550.59;;;3.73;65.85
32243;BME280;18731;42.830;24.390;2023-01-27T11:54:19;93545.31;;;3.73;65.28
32243;BME280;18731;42.830;24.390;2023-01-27T11:56:48;93551.22;;;3.70;65.82
32243;BME280;18731;42.830;24.390;2023-01-27T11:59:30;93551.50;;;3.60;65.78
32243;BME280;18731;42.830;24.390;2023-01-27T12:07:09;93550.06;;;3.06;66.82
32243;BME280;18731;42.830;24.390;2023-01-27T12:09:39;93556.69;;;2.95;66.57
32243;BME280;18731;42.830;24.390;2023-01-27T12:14:46;93555.63;;;2.73;68.05
32243;BME280;18731;42.830;24.390;2023-01-27T12:19:47;93552.38;;;2.76;68.16
32243;BME280;18731;42.830;24.390;2023-01-27T12:22:24;93556.59;;;2.77;68.09
32243;BME280;18731;42.830;24.390;2023-01-27T12:24:55;93555.19;;;2.80;68.15
32243;BME280;18731;42.830;24.390;2023-01-27T12:27:25;93547.16;;;2.85;68.12
32243;BME280;18731;42.830;24.390;2023-01-27T12:29:54;93536.63;;;2.85;68.07
32243;BME280;18731;42.830;24.390;2023-01-27T12:32:30;93554.16;;;2.89;68.38
32243;BME280;18731;42.830;24.390;2023-01-27T12:35:01;93556.69;;;2.95;68.01
32243;BME280;18731;42.830;24.390;2023-01-27T12:37:36;93551.72;;;2.93;68.36
32243;BME280;18731;42.830;24.390;2023-01-27T12:40:14;93558.53;;;2.94;68.15
32243;BME280;18731;42.830;24.390;2023-01-27T12:42:49;93553.31;;;3.03;68.16
32243;BME280;18731;42.830;24.390;2023-01-27T12:45:20;93554.09;;;3.03;68.07
32243;BME280;18731;42.830;24.390;2023-01-27T12:50:42;93557.81;;;3.02;68.91
32243;BME280;18731;42.830;24.390;2023-01-27T12:53:19;93547.69;;;2.96;68.68
32243;BME280;18731;42.830;24.390;2023-01-27T12:58:45;93553.16;;;3.08;68.09
32243;BME280;18731;42.830;24.390;2023-01-27T13:01:23;93562.00;;;3.03;69.14
32243;BME280;18731;42.830;24.390;2023-01-27T13:03:53;93549.69;;;2.90;69.14
32243;BME280;18731;42.830;24.390;2023-01-27T13:09:32;93560.66;;;3.14;68.71
32243;BME280;18731;42.830;24.390;2023-01-27T13:12:21;93562.84;;;3.21;68.76
32243;BME280;18731;42.830;24.390;2023-01-27T13:14:53;93558.88;;;3.01;68.90
32243;BME280;18731;42.830;24.390;2023-01-27T13:17:43;93567.38;;;2.98;69.41
32243;BME280;18731;42.830;24.390;2023-01-27T13:25:41;93573.41;;;2.90;69.85
32243;BME280;18731;42.830;24.390;2023-01-27T13:28:14;93574.03;;;2.96;70.05
32243;BME280;18731;42.830;24.390;2023-01-27T13:30:46;93567.59;;;2.79;70.12
32243;BME280;18731;42.830;24.390;2023-01-27T13:36:15;93580.00;;;2.79;70.81
32243;BME280;18731;42.830;24.390;2023-01-27T13:42:12;93590.00;;;2.68;70.61
32243;BME280;18731;42.830;24.390;2023-01-27T13:44:52;93590.41;;;2.62;71.47
32243;BME280;18731;42.830;24.390;2023-01-27T13:47:24;93593.75;;;2.53;71.66
32243;BME280;18731;42.830;24.390;2023-01-27T13:49:57;93586.56;;;2.45;71.67
32243;BME280;18731;42.830;24.390;2023-01-27T13:52:25;93589.91;;;2.37;72.45
32243;BME280;18731;42.830;24.390;2023-01-27T13:54:51;93595.66;;;2.39;72.26
32243;BME280;18731;42.830;24.390;2023-01-27T14:00:14;93595.75;;;2.34;72.55
32243;BME280;18731;42.830;24.390;2023-01-27T14:11:44;93612.69;;;2.19;73.19
32243;BME280;18731;42.830;24.390;2023-01-27T14:14:28;93609.38;;;2.14;73.94
32243;BME280;18731;42.830;24.390;2023-01-27T14:22:15;93614.53;;;2.19;73.77
32243;BME280;18731;42.830;24.390;2023-01-27T14:24:51;93619.69;;;2.24;73.53
32243;BME280;18731;42.830;24.390;2023-01-27T14:27:34;93610.38;;;2.04;74.14
32243;BME280;18731;42.830;24.390;2023-01-27T14:32:38;93607.06;;;1.99;74.70
32243;BME280;18731;42.830;24.390;2023-01-27T14:35:25;93609.41;;;1.86;75.42
32243;BME280;18731;42.830;24.390;2023-01-27T14:40:33;93619.06;;;1.77;76.12
32243;BME280;18731;42.830;24.390;2023-01-27T14:43:29;93621.81;;;1.72;76.94
32243;BME280;18731;42.830;24.390;2023-01-27T15:02:47;93635.25;;;1.71;79.01
32243;BME280;18731;42.830;24.390;2023-01-27T15:05:27;93633.59;;;1.61;79.69
32243;BME280;18731;42.830;24.390;2023-01-27T15:26:30;93648.41;;;1.71;79.07
32243;BME280;18731;42.830;24.390;2023-01-27T15:28:57;93649.47;;;1.70;79.08
32243;BME280;18731;42.830;24.390;2023-01-27T15:31:26;93653.47;;;1.67;79.32
32243;BME280;18731;42.830;24.390;2023-01-27T15:34:15;93664.09;;;1.76;78.96
32243;BME280;18731;42.830;24.390;2023-01-27T15:39:26;93664.28;;;1.79;78.75
32243;BME280;18731;42.830;24.390;2023-01-27T15:42:08;93651.03;;;1.57;79.07
32243;BME280;18731;42.830;24.390;2023-01-27T15:44:40;93672.28;;;1.74;79.26
32243;BME280;18731;42.830;24.390;2023-01-27T15:49:43;93680.06;;;1.79;78.81
32243;BME280;18731;42.830;24.390;2023-01-27T15:52:33;93676.16;;;1.77;78.62
32243;BME280;18731;42.830;24.390;2023-01-27T15:55:01;93680.66;;;1.76;78.29
32243;BME280;18731;42.830;24.390;2023-01-27T15:57:38;93667.22;;;1.64;78.83
32243;BME280;18731;42.830;24.390;2023-01-27T16:00:28;93688.66;;;1.85;78.45
32243;BME280;18731;42.830;24.390;2023-01-27T16:02:53;93687.97;;;1.79;78.44
32243;BME280;18731;42.830;24.390;2023-01-27T16:05:25;93681.03;;;1.83;78.13
32243;BME280;18731;42.830;24.390;2023-01-27T16:08:01;93674.81;;;1.66;78.40
32243;BME280;18731;42.830;24.390;2023-01-27T16:10:33;93694.28;;;1.78;78.07
32243;BME280;18731;42.830;24.390;2023-01-27T16:13:25;93688.06;;;1.74;78.09
32243;BME280;18731;42.830;24.390;2023-01-27T16:18:48;93687.19;;;1.65;78.65
32243;BME280;18731;42.830;24.390;2023-01-27T16:21:44;93677.03;;;1.45;79.00
32243;BME280;18731;42.830;24.390;2023-01-27T16:29:48;93695.13;;;1.33;80.32
32243;BME280;18731;42.830;24.390;2023-01-27T16:32:18;93684.09;;;1.31;80.16
32243;BME280;18731;42.830;24.390;2023-01-27T16:34:48;93690.72;;;1.28;80.49
32243;BME280;18731;42.830;24.390;2023-01-27T16:37:22;93702.38;;;1.22;80.28
32243;BME280;18731;42.830;24.390;2023-01-27T16:39:55;93705.13;;;1.31;80.05
32243;BME280;18731;42.830;24.390;2023-01-27T16:42:41;93703.59;;;1.29;80.20
32243;BME280;18731;42.830;24.390;2023-01-27T16:45:21;93704.34;;;1.30;80.02
32243;BME280;18731;42.830;24.390;2023-01-27T16:50:41;93699.63;;;1.13;80.81
32243;BME280;18731;42.830;24.390;2023-01-27T16:53:18;93695.75;;;1.11;80.93
32243;BME280;18731;42.830;24.390;2023-01-27T16:56:05;93705.97;;;1.12;80.90
32243;BME280;18731;42.830;24.390;2023-01-27T16:58:33;93701.63;;;1.21;81.09
32243;BME280;18731;42.830;24.390;2023-01-27T17:01:00;93696.56;;;1.25;80.82
32243;BME280;18731;42.830;24.390;2023-01-27T17:03:31;93693.06;;;1.29;79.93
32243;BME280;18731;42.830;24.390;2023-01-27T17:06:01;93701.53;;;1.26;80.41
32243;BME280;18731;42.830;24.390;2023-01-27T17:08:27;93708.09;;;1.43;79.64
32243;BME280;18731;42.830;24.390;2023-01-27T17:11:26;93702.44;;;1.36;79.41
32243;BME280;18731;42.830;24.390;2023-01-27T17:14:00;93696.59;;;1.39;79.02
32243;BME280;18731;42.830;24.390;2023-01-27T17:16:36;93707.09;;;1.39;78.64
32243;BME280;18731;42.830;24.390;2023-01-27T17:19:13;93714.41;;;1.42;78.71
32243;BME280;18731;42.830;24.390;2023-01-27T17:21:47;93709.03;;;1.33;78.88
32243;BME280;18731;42.830;24.390;2023-01-27T17:24:24;93706.63;;;1.37;79.10
32243;BME280;18731;42.830;24.390;2023-01-27T17:27:07;93711.38;;;1.35;78.89
32243;BME280;18731;42.830;24.390;2023-01-27T17:29:38;93693.06;;;1.29;79.12
32243;BME280;18731;42.830;24.390;2023-01-27T17:32:24;93707.31;;;1.42;78.38
32243;BME280;18731;42.830;24.390;2023-01-27T17:34:55;93711.78;;;1.42;78.41
32243;BME280;18731;42.830;24.390;2023-01-27T17:37:22;93716.47;;;1.45;78.01
32243;BME280;18731;42.830;24.390;2023-01-27T17:39:53;93710.72;;;1.43;78.08
32243;BME280;18731;42.830;24.390;2023-01-27T17:42:19;93718.59;;;1.43;78.31
32243;BME280;18731;42.830;24.390;2023-01-27T17:44:46;93718.59;;;1.43;78.27
32243;BME280;18731;42.830;24.390;2023-01-27T17:47:17;93720.56;;;1.51;78.02
32243;BME280;18731;42.830;24.390;2023-01-27T17:49:45;93719.78;;;1.50;77.80
32243;BME280;18731;42.830;24.390;2023-01-27T17:52:20;93715.09;;;1.47;78.08
32243;BME280;18731;42.830;24.390;2023-01-27T17:54:48;93720.66;;;1.46;77.55
32243;BME280;18731;42.830;24.390;2023-01-27T17:57:29;93717.13;;;1.37;77.76
32243;BME280;18731;42.830;24.390;2023-01-27T18:02:40;93719.06;;;1.31;77.91
32243;BME280;18731;42.830;24.390;2023-01-27T18:05:20;93727.94;;;1.35;78.19
32243;BME280;18731;42.830;24.390;2023-01-27T18:07:47;93730.44;;;1.26;78.38
32243;BME280;18731;42.830;24.390;2023-01-27T18:12:49;93732.00;;;1.27;78.14
32243;BME280;18731;42.830;24.390;2023-01-27T18:15:39;93737.84;;;1.24;78.50
32243;BME280;18731;42.830;24.390;2023-01-27T18:18:24;93736.63;;;1.17;78.62
32243;BME280;18731;42.830;24.390;2023-01-27T18:21:16;93739.97;;;1.22;78.43
32243;BME280;18731;42.830;24.390;2023-01-27T18:26:23;93740.47;;;1.24;78.50
32243;BME280;18731;42.830;24.390;2023-01-27T18:29:01;93743.09;;;1.24;78.45
32243;BME280;18731;42.830;24.390;2023-01-27T18:31:33;93741.75;;;1.27;78.24
32243;BME280;18731;42.830;24.390;2023-01-27T18:34:12;93746.22;;;1.26;78.39
32243;BME280;18731;42.830;24.390;2023-01-27T18:36:58;93739.88;;;1.27;78.37
32243;BME280;18731;42.830;24.390;2023-01-27T18:41:57;93747.59;;;1.38;77.63
32243;BME280;18731;42.830;24.390;2023-01-27T18:44:23;93738.34;;;1.26;77.78
32243;BME280;18731;42.830;24.390;2023-01-27T18:49:58;93746.63;;;1.34;77.85
32243;BME280;18731;42.830;24.390;2023-01-27T18:52:25;93752.75;;;1.29;77.79
32243;BME280;18731;42.830;24.390;2023-01-27T18:54:54;93755.59;;;1.33;77.46
32243;BME280;18731;42.830;24.390;2023-01-27T18:57:22;93746.78;;;1.23;77.29
32243;BME280;18731;42.830;24.390;2023-01-27T18:59:48;93751.47;;;1.26;77.41
32243;BME280;18731;42.830;24.390;2023-01-27T19:02:14;93762.41;;;1.34;77.14
32243;BME280;18731;42.830;24.390;2023-01-27T19:04:40;93758.91;;;1.38;76.92
32243;BME280;18731;42.830;24.390;2023-01-27T19:07:16;93763.47;;;1.33;77.20
32243;BME280;18731;42.830;24.390;2023-01-27T19:09:43;93759.69;;;1.39;76.80
32243;BME280;18731;42.830;24.390;2023-01-27T19:12:10;93765.53;;;1.36;77.14
32243;BME280;18731;42.830;24.390;2023-01-27T19:14:36;93765.31;;;1.32;77.05
32243;BME280;18731;42.830;24.390;2023-01-27T19:17:12;93763.75;;;1.31;76.56
32243;BME280;18731;42.830;24.390;2023-01-27T19:19:40;93768.59;;;1.24;76.89
32243;BME280;18731;42.830;24.390;2023-01-27T19:22:12;93763.13;;;1.20;77.55
32243;BME280;18731;42.830;24.390;2023-01-27T19:24:39;93769.03;;;1.12;77.94
32243;BME280;18731;42.830;24.390;2023-01-27T19:27:13;93762.91;;;1.17;78.11
32243;BME280;18731;42.830;24.390;2023-01-27T19:29:39;93754.13;;;1.08;78.08
32243;BME280;18731;42.830;24.390;2023-01-27T19:32:10;93766.97;;;1.09;78.29
32243;BME280;18731;42.830;24.390;2023-01-27T19:34:36;93735.41;;;0.95;78.02
32243;BME280;18731;42.830;24.390;2023-01-27T19:37:02;93764.28;;;1.14;78.03
32243;BME280;18731;42.830;24.390;2023-01-27T19:39:28;93770.53;;;1.18;77.72
32243;BME280;18731;42.830;24.390;2023-01-27T19:41:54;93758.66;;;1.21;78.08
32243;BME280;18731;42.830;24.390;2023-01-27T19:44:20;93767.31;;;1.21;78.10
32243;BME280;18731;42.830;24.390;2023-01-27T19:46:46;93766.81;;;1.19;78.01
32243;BME280;18731;42.830;24.390;2023-01-27T19:49:17;93767.03;;;1.23;77.58
32243;BME280;18731;42.830;24.390;2023-01-27T19:51:43;93766.41;;;1.12;78.01
32243;BME280;18731;42.830;24.390;2023-01-27T19:54:10;93767.81;;;1.23;77.91
32243;BME280;18731;42.830;24.390;2023-01-27T19:56:36;93773.22;;;1.13;77.74
32243;BME280;18731;42.830;24.390;2023-01-27T19:59:02;93773.38;;;1.03;77.76
32243;BME280;18731;42.830;24.390;2023-01-27T20:01:28;93779.25;;;1.14;77.47
32243;BME280;18731;42.830;24.390;2023-01-27T20:03:54;93786.56;;;1.17;77.78
32243;BME280;18731;42.830;24.390;2023-01-27T20:06:23;93777.34;;;1.19;77.53
32243;BME280;18731;42.830;24.390;2023-01-27T20:08:54;93793.25;;;1.09;77.60
32243;BME280;18731;42.830;24.390;2023-01-27T20:11:27;93789.00;;;1.13;77.49
32243;BME280;18731;42.830;24.390;2023-01-27T20:13:53;93791.84;;;1.17;77.37
32243;BME280;18731;42.830;24.390;2023-01-27T20:16:19;93780.56;;;0.98;77.50
32243;BME280;18731;42.830;24.390;2023-01-27T20:18:45;93806.31;;;1.14;77.29
32243;BME280;18731;42.830;24.390;2023-01-27T20:21:12;93791.69;;;1.08;76.87